Ken Ryu — H9RG — position and weather

sailwx.info

Track history (hours):
 
Tides and Currents Weather Stations Pressure Air Temp Water Temp Dewpoint Dewpoint Depression Visibility Wind Speed Wind Dir Waves Ship Positions

Ken Ryu

Last reported at 2017-Jun-30 20:31 UTC. Time now 2017-Jul-21 12:50 UTC.
Position N 40°42' E 029°27'.
Warning: this ship's position is 20 days out of date.

Length 171 m; draft 5.5 m.

Type: Cargo ship. MMSI: 372936000.

Date/timePositionNaut miles runAvg speedWind from/ knotsBaromVisibWave heightAir tempDewpointWater temp
2017-Jun-30 20:31N 40°42' E 029°27'0 1.1
2017-Jun-30 20:30N 40°42' E 029°27'  
2017-Jun-26 04:37N 39°46' E 025°59'0 0.1
2017-Jun-26 04:28N 39°46' E 025°59'0 0.0
2017-Jun-26 03:58N 39°46' E 025°59'0 0.1
2017-Jun-26 03:28N 39°46' E 025°59'0 0.0
2017-Jun-26 02:31N 39°46' E 025°59'0 0.1
2017-Jun-26 02:07N 39°46' E 025°59'0 0.1
2017-Jun-26 01:55N 39°46' E 025°59'0 0.0
2017-Jun-26 01:25N 39°46' E 025°59'159 5.1
2017-Jun-24 18:10N 37°38' E 023°59'1 5.1
2017-Jun-24 17:57N 37°37' E 023°58'3 6.1
2017-Jun-24 17:31N 37°36' E 023°55'713.3
2017-Jun-24 17:01N 37°38' E 023°47'611.7
2017-Jun-24 16:30N 37°41' E 023°42'612.1
2017-Jun-24 16:00N 37°47' E 023°38'611.0
2017-Jun-24 15:31N 37°52' E 023°34'2 4.0
2017-Jun-24 14:58N 37°53' E 023°33'0 0.1
2017-Jun-24 13:58N 37°53' E 023°33'0 0.1
2017-Jun-24 13:28N 37°53' E 023°33'0 0.2
2017-Jun-24 12:58N 37°53' E 023°33'0 0.0
2017-Jun-24 12:28N 37°53' E 023°33'0 0.1
2017-Jun-24 11:58N 37°53' E 023°33'0 0.0
2017-Jun-24 11:28N 37°53' E 023°33'0 0.0
2017-Jun-24 10:58N 37°53' E 023°33'0 0.0
2017-Jun-24 10:28N 37°53' E 023°33'0 0.0
2017-Jun-24 09:58N 37°53' E 023°33'0 0.0
2017-Jun-24 09:28N 37°53' E 023°33'0 0.0
2017-Jun-24 08:58N 37°53' E 023°33'0 0.0
2017-Jun-24 08:25N 37°53' E 023°33'0 0.1
2017-Jun-24 07:58N 37°53' E 023°33'0 0.0
2017-Jun-24 07:28N 37°53' E 023°33'0 0.1
2017-Jun-24 06:58N 37°53' E 023°33'0 0.0
2017-Jun-24 06:28N 37°53' E 023°33'0 0.0
2017-Jun-24 05:58N 37°53' E 023°33'0 0.0
2017-Jun-24 05:28N 37°53' E 023°33'0 0.1
2017-Jun-24 04:58N 37°53' E 023°33'0 0.0
2017-Jun-24 04:28N 37°53' E 023°33'0 0.1
2017-Jun-24 03:58N 37°53' E 023°33'0 0.0
2017-Jun-24 03:28N 37°53' E 023°33'0 0.0
2017-Jun-24 02:58N 37°53' E 023°33'0 0.0
2017-Jun-24 02:28N 37°53' E 023°33'0 0.1
2017-Jun-24 01:58N 37°53' E 023°33'0 0.1
2017-Jun-24 01:28N 37°53' E 023°33'0 0.1
2017-Jun-24 00:58N 37°53' E 023°33'0 0.2
2017-Jun-24 00:28N 37°53' E 023°33'0 0.1
2017-Jun-23 23:58N 37°53' E 023°33'0 0.3
2017-Jun-23 23:28N 37°53' E 023°33'0 0.1
2017-Jun-23 22:58N 37°53' E 023°33'0 0.0
2017-Jun-23 22:28N 37°53' E 023°33'0 0.0
2017-Jun-23 21:58N 37°53' E 023°33'0 0.0
2017-Jun-23 21:28N 37°53' E 023°33'0 0.0
2017-Jun-23 20:58N 37°53' E 023°33'0 0.0
2017-Jun-23 20:28N 37°53' E 023°33'0 0.0
2017-Jun-23 19:58N 37°53' E 023°33'0 0.0
2017-Jun-23 19:28N 37°53' E 023°33'0 0.0
2017-Jun-23 18:58N 37°53' E 023°33'0 0.0
2017-Jun-23 18:28N 37°53' E 023°33'0 0.0
2017-Jun-23 17:58N 37°53' E 023°33'0 0.0
2017-Jun-23 17:28N 37°53' E 023°33'0 0.0
2017-Jun-23 16:58N 37°53' E 023°33'0 0.1
2017-Jun-23 16:28N 37°53' E 023°33'0 0.1
2017-Jun-23 15:58N 37°53' E 023°33'0 0.1
2017-Jun-23 15:28N 37°53' E 023°33'0 0.0
2017-Jun-23 14:58N 37°53' E 023°33'0 0.0
2017-Jun-23 14:01N 37°53' E 023°33'0 0.1
2017-Jun-23 13:31N 37°53' E 023°33'0 0.4
2017-Jun-23 13:01N 37°53' E 023°33'0 0.0
2017-Jun-23 12:30N 37°53' E 023°33'0 0.1
2017-Jun-23 11:57N 37°53' E 023°33'0 0.1
2017-Jun-23 11:30N 37°53' E 023°33'0 0.0
2017-Jun-23 11:00N 37°53' E 023°33'0 0.0
2017-Jun-23 10:30N 37°53' E 023°33'0 0.2
2017-Jun-23 10:00N 37°53' E 023°33'0 0.2
2017-Jun-23 09:30N 37°53' E 023°33'0 0.3
2017-Jun-23 09:00N 37°53' E 023°33'1 2.5
2017-Jun-23 08:30N 37°54' E 023°34'2 4.3
2017-Jun-23 08:00N 37°55' E 023°36'2 3.9
2017-Jun-23 07:30N 37°57' E 023°35'1 2.7
2017-Jun-23 07:00N 37°58' E 023°34'0 0.1
2017-Jun-23 06:30N 37°58' E 023°34'0 0.0
2017-Jun-23 06:00N 37°58' E 023°34'0 0.0
2017-Jun-23 05:30N 37°58' E 023°34'0 0.0
2017-Jun-23 05:00N 37°58' E 023°34'0 0.0
2017-Jun-23 04:30N 37°58' E 023°34'0 0.0
2017-Jun-23 04:00N 37°58' E 023°34'0 0.0
2017-Jun-23 03:30N 37°58' E 023°34'0 0.0
2017-Jun-23 03:00N 37°58' E 023°34'0 0.0
2017-Jun-23 02:30N 37°58' E 023°34'0 0.0
2017-Jun-23 02:00N 37°58' E 023°34'0 0.0
2017-Jun-23 01:30N 37°58' E 023°34'0 0.0
2017-Jun-23 01:00N 37°58' E 023°34'0 0.0
2017-Jun-23 00:30N 37°58' E 023°34'0 0.0
2017-Jun-23 00:00N 37°58' E 023°34'0 0.0
2017-Jun-22 23:30N 37°58' E 023°34'0 0.0
2017-Jun-22 23:00N 37°58' E 023°34'0 0.0
2017-Jun-22 22:29N 37°58' E 023°34'0 0.0
2017-Jun-22 22:00N 37°58' E 023°34'0 0.0
2017-Jun-22 21:29N 37°58' E 023°34'0 0.0
2017-Jun-22 21:00N 37°58' E 023°34'0 0.0
2017-Jun-22 20:29N 37°58' E 023°34'0 0.0
2017-Jun-22 20:00N 37°58' E 023°34'0 0.0
2017-Jun-22 19:29N 37°58' E 023°34'0 0.0
2017-Jun-22 18:59N 37°58' E 023°34'0 0.0
2017-Jun-22 18:29N 37°58' E 023°34'0 0.0
2017-Jun-22 17:59N 37°58' E 023°34'0 0.0
2017-Jun-22 17:29N 37°58' E 023°34'0 0.0
2017-Jun-22 16:59N 37°58' E 023°34'0 0.0
2017-Jun-22 16:29N 37°58' E 023°34'0 0.0
2017-Jun-22 15:59N 37°58' E 023°34'0 0.0
2017-Jun-22 15:29N 37°58' E 023°34'0 0.0
2017-Jun-22 14:59N 37°58' E 023°34'0 0.0
2017-Jun-22 14:29N 37°58' E 023°34'0 0.0
2017-Jun-22 13:29N 37°58' E 023°34'0 0.0
2017-Jun-22 12:59N 37°58' E 023°34'0 0.0
2017-Jun-22 12:29N 37°58' E 023°34'0 0.0
2017-Jun-22 11:59N 37°58' E 023°34'0 0.0
2017-Jun-22 11:26N 37°58' E 023°34'0 0.0
2017-Jun-22 10:59N 37°58' E 023°34'0 0.0
2017-Jun-22 10:26N 37°58' E 023°34'0 0.0
2017-Jun-22 09:59N 37°58' E 023°34'0 0.0
2017-Jun-22 09:29N 37°58' E 023°34'0 0.0
2017-Jun-22 08:59N 37°58' E 023°34'0 0.0
2017-Jun-22 08:29N 37°58' E 023°34'0 0.0
2017-Jun-22 07:59N 37°58' E 023°34'0 0.0
2017-Jun-22 07:29N 37°58' E 023°34'0 0.0
2017-Jun-22 06:59N 37°58' E 023°34'0 0.0
2017-Jun-22 06:29N 37°58' E 023°34'0 0.0
2017-Jun-22 05:59N 37°58' E 023°34'0 0.0
2017-Jun-22 05:29N 37°58' E 023°34'0 0.0
2017-Jun-22 04:59N 37°58' E 023°34'0 0.0
2017-Jun-22 04:29N 37°58' E 023°34'0 0.0
2017-Jun-22 03:56N 37°58' E 023°34'0 0.0
2017-Jun-22 03:29N 37°58' E 023°34'0 0.0
2017-Jun-22 02:59N 37°58' E 023°34'0 0.0
2017-Jun-22 02:29N 37°58' E 023°34'0 0.0
2017-Jun-22 01:59N 37°58' E 023°34'0 0.0
2017-Jun-22 01:29N 37°58' E 023°34'0 0.0
2017-Jun-22 00:59N 37°58' E 023°34'0 0.0
2017-Jun-22 00:29N 37°58' E 023°34'0 0.0
2017-Jun-21 23:59N 37°58' E 023°34'0 0.0
2017-Jun-21 23:29N 37°58' E 023°34'0 0.0
2017-Jun-21 22:59N 37°58' E 023°34'0 0.0
2017-Jun-21 22:29N 37°58' E 023°34'0 0.0
2017-Jun-21 21:59N 37°58' E 023°34'0 0.0
2017-Jun-21 21:26N 37°58' E 023°34'0 0.0
2017-Jun-21 20:59N 37°58' E 023°34'0 0.0
2017-Jun-21 20:29N 37°58' E 023°34'0 0.0
2017-Jun-21 19:59N 37°58' E 023°34'0 0.0
2017-Jun-21 19:29N 37°58' E 023°34'0 0.0
2017-Jun-21 18:59N 37°58' E 023°34'0 0.0
2017-Jun-21 18:29N 37°58' E 023°34'0 0.0
2017-Jun-21 17:59N 37°58' E 023°34'0 0.0
2017-Jun-21 17:29N 37°58' E 023°34'0 0.0
2017-Jun-21 16:59N 37°58' E 023°34'0 0.0
2017-Jun-21 16:29N 37°58' E 023°34'0 0.0
2017-Jun-21 15:59N 37°58' E 023°34'0 0.0
2017-Jun-21 15:29N 37°58' E 023°34'0 0.0
2017-Jun-21 14:59N 37°58' E 023°34'0 0.0
2017-Jun-21 14:29N 37°58' E 023°34'0 0.0
2017-Jun-21 13:29N 37°58' E 023°34'0 0.0
2017-Jun-21 12:59N 37°58' E 023°34'0 0.0
2017-Jun-21 12:28N 37°58' E 023°34'0 0.0
2017-Jun-21 11:59N 37°58' E 023°34'0 0.0
2017-Jun-21 11:29N 37°58' E 023°34'0 0.0
2017-Jun-21 10:58N 37°58' E 023°34'0 0.0
2017-Jun-21 10:28N 37°58' E 023°34'0 0.0
2017-Jun-21 09:58N 37°58' E 023°34'0 0.0
2017-Jun-21 09:28N 37°58' E 023°34'0 0.0
2017-Jun-21 08:58N 37°58' E 023°34'0 0.0
2017-Jun-21 08:28N 37°58' E 023°34'0 0.0
2017-Jun-21 07:58N 37°58' E 023°34'0 0.0
2017-Jun-21 07:28N 37°58' E 023°34'0 0.0
2017-Jun-21 06:58N 37°58' E 023°34'0 0.0
2017-Jun-21 06:28N 37°58' E 023°34'0 0.0
2017-Jun-21 05:58N 37°58' E 023°34'0 0.0
2017-Jun-21 05:28N 37°58' E 023°34'0 0.0
2017-Jun-21 04:58N 37°58' E 023°34'0 0.0
2017-Jun-21 04:28N 37°58' E 023°34'0 0.0
2017-Jun-21 03:58N 37°58' E 023°34'0 0.0
2017-Jun-21 03:28N 37°58' E 023°34'0 0.0
2017-Jun-21 02:58N 37°58' E 023°34'0 0.0
2017-Jun-21 02:28N 37°58' E 023°34'0 0.0
2017-Jun-21 01:58N 37°58' E 023°34'0 0.0
2017-Jun-21 01:28N 37°58' E 023°34'0 0.0
2017-Jun-21 00:58N 37°58' E 023°34'0 0.0
2017-Jun-21 00:28N 37°58' E 023°34'0 0.0
2017-Jun-20 23:58N 37°58' E 023°34'0 0.0
2017-Jun-20 23:28N 37°58' E 023°34'0 0.0
2017-Jun-20 22:58N 37°58' E 023°34'0 0.0
2017-Jun-20 22:28N 37°58' E 023°34'0 0.0
2017-Jun-20 21:58N 37°58' E 023°34'0 0.0
2017-Jun-20 21:28N 37°58' E 023°34'0 0.0
2017-Jun-20 20:58N 37°58' E 023°34'  
Track history (hours):
 
Tides and Currents Weather Stations Pressure Air Temp Water Temp Dewpoint Dewpoint Depression Visibility Wind Speed Wind Dir Waves Ship Positions

Ken Ryu

Last reported at 2017-Jun-30 20:31 UTC. Time now 2017-Jul-21 12:50 UTC.
Position N 40°42' E 029°27'.
Warning: this ship's position is 20 days out of date.

Length 171 m; draft 5.5 m.

Type: Cargo ship. MMSI: 372936000.

Date/timePositionNaut miles runAvg speedWind from/ knotsBaromVisibWave heightAir tempDewpointWater temp
2017-Jun-30 20:31N 40°42' E 029°27'0 1.1
2017-Jun-30 20:30N 40°42' E 029°27'  
2017-Jun-26 04:37N 39°46' E 025°59'0 0.1
2017-Jun-26 04:28N 39°46' E 025°59'0 0.0
2017-Jun-26 03:58N 39°46' E 025°59'0 0.1
2017-Jun-26 03:28N 39°46' E 025°59'0 0.0
2017-Jun-26 02:31N 39°46' E 025°59'0 0.1
2017-Jun-26 02:07N 39°46' E 025°59'0 0.1
2017-Jun-26 01:55N 39°46' E 025°59'0 0.0
2017-Jun-26 01:25N 39°46' E 025°59'159 5.1
2017-Jun-24 18:10N 37°38' E 023°59'1 5.1
2017-Jun-24 17:57N 37°37' E 023°58'3 6.1
2017-Jun-24 17:31N 37°36' E 023°55'713.3
2017-Jun-24 17:01N 37°38' E 023°47'611.7
2017-Jun-24 16:30N 37°41' E 023°42'612.1
2017-Jun-24 16:00N 37°47' E 023°38'611.0
2017-Jun-24 15:31N 37°52' E 023°34'2 4.0
2017-Jun-24 14:58N 37°53' E 023°33'0 0.1
2017-Jun-24 13:58N 37°53' E 023°33'0 0.1
2017-Jun-24 13:28N 37°53' E 023°33'0 0.2
2017-Jun-24 12:58N 37°53' E 023°33'0 0.0
2017-Jun-24 12:28N 37°53' E 023°33'0 0.1
2017-Jun-24 11:58N 37°53' E 023°33'0 0.0
2017-Jun-24 11:28N 37°53' E 023°33'0 0.0
2017-Jun-24 10:58N 37°53' E 023°33'0 0.0
2017-Jun-24 10:28N 37°53' E 023°33'0 0.0
2017-Jun-24 09:58N 37°53' E 023°33'0 0.0
2017-Jun-24 09:28N 37°53' E 023°33'0 0.0
2017-Jun-24 08:58N 37°53' E 023°33'0 0.0
2017-Jun-24 08:25N 37°53' E 023°33'0 0.1
2017-Jun-24 07:58N 37°53' E 023°33'0 0.0
2017-Jun-24 07:28N 37°53' E 023°33'0 0.1
2017-Jun-24 06:58N 37°53' E 023°33'0 0.0
2017-Jun-24 06:28N 37°53' E 023°33'0 0.0
2017-Jun-24 05:58N 37°53' E 023°33'0 0.0
2017-Jun-24 05:28N 37°53' E 023°33'0 0.1
2017-Jun-24 04:58N 37°53' E 023°33'0 0.0
2017-Jun-24 04:28N 37°53' E 023°33'0 0.1
2017-Jun-24 03:58N 37°53' E 023°33'0 0.0
2017-Jun-24 03:28N 37°53' E 023°33'0 0.0
2017-Jun-24 02:58N 37°53' E 023°33'0 0.0
2017-Jun-24 02:28N 37°53' E 023°33'0 0.1
2017-Jun-24 01:58N 37°53' E 023°33'0 0.1
2017-Jun-24 01:28N 37°53' E 023°33'0 0.1
2017-Jun-24 00:58N 37°53' E 023°33'0 0.2
2017-Jun-24 00:28N 37°53' E 023°33'0 0.1
2017-Jun-23 23:58N 37°53' E 023°33'0 0.3
2017-Jun-23 23:28N 37°53' E 023°33'0 0.1
2017-Jun-23 22:58N 37°53' E 023°33'0 0.0
2017-Jun-23 22:28N 37°53' E 023°33'0 0.0
2017-Jun-23 21:58N 37°53' E 023°33'0 0.0
2017-Jun-23 21:28N 37°53' E 023°33'0 0.0
2017-Jun-23 20:58N 37°53' E 023°33'0 0.0
2017-Jun-23 20:28N 37°53' E 023°33'0 0.0
2017-Jun-23 19:58N 37°53' E 023°33'0 0.0
2017-Jun-23 19:28N 37°53' E 023°33'0 0.0
2017-Jun-23 18:58N 37°53' E 023°33'0 0.0
2017-Jun-23 18:28N 37°53' E 023°33'0 0.0
2017-Jun-23 17:58N 37°53' E 023°33'0 0.0
2017-Jun-23 17:28N 37°53' E 023°33'0 0.0
2017-Jun-23 16:58N 37°53' E 023°33'0 0.1
2017-Jun-23 16:28N 37°53' E 023°33'0 0.1
2017-Jun-23 15:58N 37°53' E 023°33'0 0.1
2017-Jun-23 15:28N 37°53' E 023°33'0 0.0
2017-Jun-23 14:58N 37°53' E 023°33'0 0.0
2017-Jun-23 14:01N 37°53' E 023°33'0 0.1
2017-Jun-23 13:31N 37°53' E 023°33'0 0.4
2017-Jun-23 13:01N 37°53' E 023°33'0 0.0
2017-Jun-23 12:30N 37°53' E 023°33'0 0.1
2017-Jun-23 11:57N 37°53' E 023°33'0 0.1
2017-Jun-23 11:30N 37°53' E 023°33'0 0.0
2017-Jun-23 11:00N 37°53' E 023°33'0 0.0
2017-Jun-23 10:30N 37°53' E 023°33'0 0.2
2017-Jun-23 10:00N 37°53' E 023°33'0 0.2
2017-Jun-23 09:30N 37°53' E 023°33'0 0.3
2017-Jun-23 09:00N 37°53' E 023°33'1 2.5
2017-Jun-23 08:30N 37°54' E 023°34'2 4.3
2017-Jun-23 08:00N 37°55' E 023°36'2 3.9
2017-Jun-23 07:30N 37°57' E 023°35'1 2.7
2017-Jun-23 07:00N 37°58' E 023°34'0 0.1
2017-Jun-23 06:30N 37°58' E 023°34'0 0.0
2017-Jun-23 06:00N 37°58' E 023°34'0 0.0
2017-Jun-23 05:30N 37°58' E 023°34'0 0.0
2017-Jun-23 05:00N 37°58' E 023°34'0 0.0
2017-Jun-23 04:30N 37°58' E 023°34'0 0.0
2017-Jun-23 04:00N 37°58' E 023°34'0 0.0
2017-Jun-23 03:30N 37°58' E 023°34'0 0.0
2017-Jun-23 03:00N 37°58' E 023°34'0 0.0
2017-Jun-23 02:30N 37°58' E 023°34'0 0.0
2017-Jun-23 02:00N 37°58' E 023°34'0 0.0
2017-Jun-23 01:30N 37°58' E 023°34'0 0.0
2017-Jun-23 01:00N 37°58' E 023°34'0 0.0
2017-Jun-23 00:30N 37°58' E 023°34'0 0.0
2017-Jun-23 00:00N 37°58' E 023°34'0 0.0
2017-Jun-22 23:30N 37°58' E 023°34'0 0.0
2017-Jun-22 23:00N 37°58' E 023°34'0 0.0
2017-Jun-22 22:29N 37°58' E 023°34'0 0.0
2017-Jun-22 22:00N 37°58' E 023°34'0 0.0
2017-Jun-22 21:29N 37°58' E 023°34'0 0.0
2017-Jun-22 21:00N 37°58' E 023°34'0 0.0
2017-Jun-22 20:29N 37°58' E 023°34'0 0.0
2017-Jun-22 20:00N 37°58' E 023°34'0 0.0
2017-Jun-22 19:29N 37°58' E 023°34'0 0.0
2017-Jun-22 18:59N 37°58' E 023°34'0 0.0
2017-Jun-22 18:29N 37°58' E 023°34'0 0.0
2017-Jun-22 17:59N 37°58' E 023°34'0 0.0
2017-Jun-22 17:29N 37°58' E 023°34'0 0.0
2017-Jun-22 16:59N 37°58' E 023°34'0 0.0
2017-Jun-22 16:29N 37°58' E 023°34'0 0.0
2017-Jun-22 15:59N 37°58' E 023°34'0 0.0
2017-Jun-22 15:29N 37°58' E 023°34'0 0.0
2017-Jun-22 14:59N 37°58' E 023°34'0 0.0
2017-Jun-22 14:29N 37°58' E 023°34'0 0.0
2017-Jun-22 13:29N 37°58' E 023°34'0 0.0
2017-Jun-22 12:59N 37°58' E 023°34'0 0.0
2017-Jun-22 12:29N 37°58' E 023°34'0 0.0
2017-Jun-22 11:59N 37°58' E 023°34'0 0.0
2017-Jun-22 11:26N 37°58' E 023°34'0 0.0
2017-Jun-22 10:59N 37°58' E 023°34'0 0.0
2017-Jun-22 10:26N 37°58' E 023°34'0 0.0
2017-Jun-22 09:59N 37°58' E 023°34'0 0.0
2017-Jun-22 09:29N 37°58' E 023°34'0 0.0
2017-Jun-22 08:59N 37°58' E 023°34'0 0.0
2017-Jun-22 08:29N 37°58' E 023°34'0 0.0
2017-Jun-22 07:59N 37°58' E 023°34'0 0.0
2017-Jun-22 07:29N 37°58' E 023°34'0 0.0
2017-Jun-22 06:59N 37°58' E 023°34'0 0.0
2017-Jun-22 06:29N 37°58' E 023°34'0 0.0
2017-Jun-22 05:59N 37°58' E 023°34'0 0.0
2017-Jun-22 05:29N 37°58' E 023°34'0 0.0
2017-Jun-22 04:59N 37°58' E 023°34'0 0.0
2017-Jun-22 04:29N 37°58' E 023°34'0 0.0
2017-Jun-22 03:56N 37°58' E 023°34'0 0.0
2017-Jun-22 03:29N 37°58' E 023°34'0 0.0
2017-Jun-22 02:59N 37°58' E 023°34'0 0.0
2017-Jun-22 02:29N 37°58' E 023°34'0 0.0
2017-Jun-22 01:59N 37°58' E 023°34'0 0.0
2017-Jun-22 01:29N 37°58' E 023°34'0 0.0
2017-Jun-22 00:59N 37°58' E 023°34'0 0.0
2017-Jun-22 00:29N 37°58' E 023°34'0 0.0
2017-Jun-21 23:59N 37°58' E 023°34'0 0.0
2017-Jun-21 23:29N 37°58' E 023°34'0 0.0
2017-Jun-21 22:59N 37°58' E 023°34'0 0.0
2017-Jun-21 22:29N 37°58' E 023°34'0 0.0
2017-Jun-21 21:59N 37°58' E 023°34'0 0.0
2017-Jun-21 21:26N 37°58' E 023°34'0 0.0
2017-Jun-21 20:59N 37°58' E 023°34'0 0.0
2017-Jun-21 20:29N 37°58' E 023°34'0 0.0
2017-Jun-21 19:59N 37°58' E 023°34'0 0.0
2017-Jun-21 19:29N 37°58' E 023°34'0 0.0
2017-Jun-21 18:59N 37°58' E 023°34'0 0.0
2017-Jun-21 18:29N 37°58' E 023°34'0 0.0
2017-Jun-21 17:59N 37°58' E 023°34'0 0.0
2017-Jun-21 17:29N 37°58' E 023°34'0 0.0
2017-Jun-21 16:59N 37°58' E 023°34'0 0.0
2017-Jun-21 16:29N 37°58' E 023°34'0 0.0
2017-Jun-21 15:59N 37°58' E 023°34'0 0.0
2017-Jun-21 15:29N 37°58' E 023°34'0 0.0
2017-Jun-21 14:59N 37°58' E 023°34'0 0.0
2017-Jun-21 14:29N 37°58' E 023°34'0 0.0
2017-Jun-21 13:29N 37°58' E 023°34'0 0.0
2017-Jun-21 12:59N 37°58' E 023°34'0 0.0
2017-Jun-21 12:28N 37°58' E 023°34'0 0.0
2017-Jun-21 11:59N 37°58' E 023°34'0 0.0
2017-Jun-21 11:29N 37°58' E 023°34'0 0.0
2017-Jun-21 10:58N 37°58' E 023°34'0 0.0
2017-Jun-21 10:28N 37°58' E 023°34'0 0.0
2017-Jun-21 09:58N 37°58' E 023°34'0 0.0
2017-Jun-21 09:28N 37°58' E 023°34'0 0.0
2017-Jun-21 08:58N 37°58' E 023°34'0 0.0
2017-Jun-21 08:28N 37°58' E 023°34'0 0.0
2017-Jun-21 07:58N 37°58' E 023°34'0 0.0
2017-Jun-21 07:28N 37°58' E 023°34'0 0.0
2017-Jun-21 06:58N 37°58' E 023°34'0 0.0
2017-Jun-21 06:28N 37°58' E 023°34'0 0.0
2017-Jun-21 05:58N 37°58' E 023°34'0 0.0
2017-Jun-21 05:28N 37°58' E 023°34'0 0.0
2017-Jun-21 04:58N 37°58' E 023°34'0 0.0
2017-Jun-21 04:28N 37°58' E 023°34'0 0.0
2017-Jun-21 03:58N 37°58' E 023°34'0 0.0
2017-Jun-21 03:28N 37°58' E 023°34'0 0.0
2017-Jun-21 02:58N 37°58' E 023°34'0 0.0
2017-Jun-21 02:28N 37°58' E 023°34'0 0.0
2017-Jun-21 01:58N 37°58' E 023°34'0 0.0
2017-Jun-21 01:28N 37°58' E 023°34'0 0.0
2017-Jun-21 00:58N 37°58' E 023°34'0 0.0
2017-Jun-21 00:28N 37°58' E 023°34'0 0.0
2017-Jun-20 23:58N 37°58' E 023°34'0 0.0
2017-Jun-20 23:28N 37°58' E 023°34'0 0.0
2017-Jun-20 22:58N 37°58' E 023°34'0 0.0
2017-Jun-20 22:28N 37°58' E 023°34'0 0.0
2017-Jun-20 21:58N 37°58' E 023°34'0 0.0
2017-Jun-20 21:28N 37°58' E 023°34'0 0.0
2017-Jun-20 20:58N 37°58' E 023°34'  

Dump ship's entire track history